Terminal Aerodrome Forecast
Issued by NWS Grand Forks, ND

Home | Current Version | Previous Version | Graphics & Text | Print | Product List | Glossary On
Versions: 1 2 3 4 5 6 7 8 9 10 11 12 13 14 15 16 17 18 19 20
602
FTUS43 KFGF 101739
TAFGFK
TAF
KGFK 101739Z 1018/1118 32004KT P6SM BKN080
     FM102200 24004KT P6SM BKN080
     FM110000 18006KT P6SM -SN BKN020 OVC030
     FM110400 20008KT 1 1/2SM -SN BKN008 OVC020
     FM111200 34018G27KT 4SM BLSN OVC008
     FM111700 35020G30KT P6SM BKN020=

USA.gov is the U.S. government's official web portal to all federal, state and local government web resources and services.